Time,TemperatureF,DewpointF,PressureIn,WindDirection,WindDirectionDegrees,WindSpeedMPH,WindSpeedGustMPH,Humidity,HourlyPrecipIn,Conditions,Clouds,dailyrainin,SoftwareType,DateUTC
2013-06-05 00:00:00,73.3,69.9,30.07,East,99,18.0,20.0,89,0.00,,---,0.00,VWS V14.01,2013-06-05 04:00:00,
2013-06-05 00:01:00,73.3,69.5,30.07,East,100,12.0,20.0,88,0.00,,---,0.00,VWS V14.01,2013-06-05 04:01:00,
2013-06-05 00:02:00,73.3,69.5,30.07,ESE,115,18.0,20.0,88,0.00,,---,0.00,VWS V14.01,2013-06-05 04:02:00,
2013-06-05 00:07:00,73.3,69.9,30.07,East,93,15.0,20.0,89,0.00,,---,0.00,VWS V14.01,2013-06-05 04:07:00,
2013-06-05 00:12:00,73.2,69.4,30.07,East,97,15.0,21.0,88,0.00,,---,0.00,VWS V14.01,2013-06-05 04:12:00,
2013-06-05 00:17:00,73.1,69.7,30.07,ESE,103,13.0,21.0,89,0.00,,---,0.00,VWS V14.01,2013-06-05 04:17:00,
2013-06-05 00:22:00,73.1,69.3,30.07,ESE,102,6.0,21.0,88,0.00,,---,0.00,VWS V14.01,2013-06-05 04:22:00,
2013-06-05 00:27:00,72.9,69.1,30.07,ESE,106,15.0,15.0,88,0.00,,---,0.00,VWS V14.01,2013-06-05 04:27:00,
2013-06-05 00:33:00,72.9,69.1,30.07,East,96,11.0,17.0,88,0.00,,---,0.00,VWS V14.01,2013-06-05 04:33:00,
2013-06-05 00:38:00,72.8,69.0,30.07,ESE,109,15.0,22.0,88,0.00,,---,0.00,VWS V14.01,2013-06-05 04:38:00,
2013-06-05 00:43:00,72.8,69.0,30.07,ESE,103,17.0,22.0,88,0.00,,---,0.00,VWS V14.01,2013-06-05 04:43:00,
2013-06-05 00:48:00,72.9,69.1,30.07,ESE,107,12.0,22.0,88,0.00,,---,0.00,VWS V14.01,2013-06-05 04:48:00,
2013-06-05 00:53:00,72.9,69.1,30.07,East,96,9.0,22.0,88,0.00,,---,0.00,VWS V14.01,2013-06-05 04:53:00,
2013-06-05 00:58:00,72.9,69.1,30.07,ESE,113,15.0,15.0,88,0.00,,---,0.00,VWS V14.01,2013-06-05 04:58:00,
2013-06-05 01:03:00,72.9,69.5,30.07,East,82,9.0,16.0,89,0.00,,---,0.00,VWS V14.01,2013-06-05 05:03:00,
2013-06-05 01:08:00,72.7,69.3,30.07,ESE,111,9.0,16.0,89,0.00,,---,0.00,VWS V14.01,2013-06-05 05:08:00,
2013-06-05 01:13:00,72.6,69.2,30.07,ESE,105,6.0,19.0,89,0.00,,---,0.00,VWS V14.01,2013-06-05 05:13:00,
2013-06-05 01:18:00,72.4,69.0,30.07,East,89,11.0,19.0,89,0.00,,---,0.00,VWS V14.01,2013-06-05 05:18:00,
2013-06-05 01:23:00,72.3,68.9,30.06,East,101,12.0,19.0,89,0.00,,---,0.00,VWS V14.01,2013-06-05 05:23:00,
2013-06-05 01:28:00,72.2,68.8,30.06,East,92,10.0,16.0,89,0.00,,---,0.00,VWS V14.01,2013-06-05 05:28:00,
2013-06-05 01:33:00,72.2,68.8,30.06,East,96,12.0,16.0,89,0.00,,---,0.00,VWS V14.01,2013-06-05 05:33:00,
2013-06-05 01:38:00,72.2,68.8,30.06,East,83,6.0,16.0,89,0.00,,---,0.00,VWS V14.01,2013-06-05 05:38:00,
2013-06-05 01:43:00,72.2,69.1,30.06,East,95,13.0,16.0,90,0.00,,---,0.00,VWS V14.01,2013-06-05 05:43:00,
2013-06-05 01:48:00,72.2,69.1,30.06,East,87,11.0,18.0,90,0.00,,---,0.00,VWS V14.01,2013-06-05 05:48:00,
2013-06-05 01:53:00,72.1,69.0,30.06,East,94,10.0,18.0,90,0.00,,---,0.00,VWS V14.01,2013-06-05 05:53:00,
2013-06-05 01:59:00,72.0,68.9,30.06,East,88,13.0,14.0,90,0.00,,---,0.00,VWS V14.01,2013-06-05 05:59:00,
2013-06-05 02:04:00,71.9,68.8,30.06,ESE,107,13.0,17.0,90,0.00,,---,0.00,VWS V14.01,2013-06-05 06:04:00,
2013-06-05 02:09:00,71.8,68.7,30.06,East,86,11.0,17.0,90,0.00,,---,0.00,VWS V14.01,2013-06-05 06:09:00,
2013-06-05 02:14:00,71.9,68.8,30.05,East,94,11.0,17.0,90,0.00,,---,0.00,VWS V14.01,2013-06-05 06:14:00,
2013-06-05 02:19:00,71.8,68.7,30.05,ESE,102,9.0,17.0,90,0.00,,---,0.00,VWS V14.01,2013-06-05 06:19:00,
2013-06-05 02:24:00,71.8,68.7,30.05,ESE,107,12.0,17.0,90,0.00,,---,0.00,VWS V14.01,2013-06-05 06:24:00,
2013-06-05 02:29:00,71.8,68.7,30.06,ESE,109,13.0,15.0,90,0.00,,---,0.00,VWS V14.01,2013-06-05 06:29:00,
2013-06-05 02:34:00,71.8,68.7,30.06,ESE,105,9.0,17.0,90,0.00,,---,0.00,VWS V14.01,2013-06-05 06:34:00,
2013-06-05 02:39:00,71.7,68.6,30.06,SE,127,10.0,17.0,90,0.00,,---,0.00,VWS V14.01,2013-06-05 06:39:00,
2013-06-05 02:44:00,71.8,68.7,30.06,East,91,13.0,17.0,90,0.00,,---,0.00,VWS V14.01,2013-06-05 06:44:00,
2013-06-05 02:49:00,71.7,68.6,30.05,East,81,10.0,17.0,90,0.00,,---,0.00,VWS V14.01,2013-06-05 06:49:00,
2013-06-05 02:54:00,71.7,68.6,30.05,East,96,11.0,17.0,90,0.00,,---,0.00,VWS V14.01,2013-06-05 06:54:00,
2013-06-05 02:59:00,71.7,68.6,30.05,East,86,10.0,14.0,90,0.00,,---,0.00,VWS V14.01,2013-06-05 06:59:00,
2013-06-05 03:04:00,71.7,68.6,30.05,ESE,105,8.0,17.0,90,0.00,,---,0.00,VWS V14.01,2013-06-05 07:04:00,
2013-06-05 03:09:00,71.7,68.6,30.05,East,92,13.0,17.0,90,0.00,,---,0.00,VWS V14.01,2013-06-05 07:09:00,
2013-06-05 03:14:00,71.7,68.6,30.05,East,90,6.0,18.0,90,0.00,,---,0.00,VWS V14.01,2013-06-05 07:14:00,
2013-06-05 03:19:00,71.6,68.5,30.05,East,79,11.0,18.0,90,0.00,,---,0.00,VWS V14.01,2013-06-05 07:19:00,
2013-06-05 03:24:00,71.4,68.3,30.06,East,84,9.0,18.0,90,0.00,,---,0.00,VWS V14.01,2013-06-05 07:24:00,
2013-06-05 03:29:00,71.2,68.1,30.05,ENE,71,9.0,13.0,90,0.00,,---,0.00,VWS V14.01,2013-06-05 07:29:00,
2013-06-05 03:35:00,71.1,68.0,30.06,ENE,67,11.0,14.0,90,0.00,,---,0.00,VWS V14.01,2013-06-05 07:35:00,
2013-06-05 03:40:00,71.0,67.9,30.06,ENE,78,9.0,14.0,90,0.00,,---,0.00,VWS V14.01,2013-06-05 07:40:00,
2013-06-05 03:45:00,70.9,67.8,30.06,East,95,5.0,14.0,90,0.00,,---,0.00,VWS V14.01,2013-06-05 07:45:00,
2013-06-05 03:50:00,70.8,67.7,30.06,ENE,73,6.0,14.0,90,0.00,,---,0.00,VWS V14.01,2013-06-05 07:50:00,
2013-06-05 03:55:00,70.9,67.8,30.06,East,92,12.0,14.0,90,0.00,,---,0.00,VWS V14.01,2013-06-05 07:55:00,
2013-06-05 04:00:00,70.9,67.8,30.06,East,98,5.0,13.0,90,0.00,,---,0.00,VWS V14.01,2013-06-05 08:00:00,
2013-06-05 04:05:00,71.0,67.9,30.06,East,94,10.0,13.0,90,0.00,,---,0.00,VWS V14.01,2013-06-05 08:05:00,
2013-06-05 04:10:00,71.0,67.9,30.06,East,90,10.0,15.0,90,0.00,,---,0.00,VWS V14.01,2013-06-05 08:10:00,
2013-06-05 04:15:00,71.0,67.9,30.05,East,83,7.0,15.0,90,0.00,,---,0.00,VWS V14.01,2013-06-05 08:15:00,
2013-06-05 04:20:00,71.0,67.9,30.05,ENE,62,11.0,15.0,90,0.00,,---,0.00,VWS V14.01,2013-06-05 08:20:00,
2013-06-05 04:25:00,71.1,68.0,30.05,East,84,13.0,15.0,90,0.00,,---,0.00,VWS V14.01,2013-06-05 08:25:00,
2013-06-05 04:30:00,71.1,68.0,30.05,ENE,74,11.0,17.0,90,0.00,,---,0.00,VWS V14.01,2013-06-05 08:30:00,
2013-06-05 04:35:00,71.2,68.1,30.05,East,83,11.0,17.0,90,0.00,,---,0.00,VWS V14.01,2013-06-05 08:35:00,
2013-06-05 04:40:00,71.3,68.2,30.05,East,91,14.0,17.0,90,0.00,,---,0.00,VWS V14.01,2013-06-05 08:40:00,
2013-06-05 04:46:00,71.2,68.1,30.05,East,94,13.0,17.0,90,0.00,,---,0.00,VWS V14.01,2013-06-05 08:46:00,
2013-06-05 04:51:00,71.2,68.1,30.05,East,100,14.0,17.0,90,0.00,,---,0.00,VWS V14.01,2013-06-05 08:51:00,
2013-06-05 04:56:00,71.2,68.1,30.05,East,101,12.0,17.0,90,0.00,,---,0.00,VWS V14.01,2013-06-05 08:56:00,
2013-06-05 05:01:00,71.2,68.1,30.05,East,99,6.0,17.0,90,0.00,,---,0.00,VWS V14.01,2013-06-05 09:01:00,
2013-06-05 05:06:00,71.3,68.5,30.05,East,92,12.0,18.0,91,0.00,,---,0.00,VWS V14.01,2013-06-05 09:06:00,
2013-06-05 05:11:00,71.3,68.5,30.05,ESE,107,13.0,18.0,91,0.00,,---,0.00,VWS V14.01,2013-06-05 09:11:00,
2013-06-05 05:16:00,71.3,68.5,30.04,ESE,113,16.0,18.0,91,0.00,,---,0.00,VWS V14.01,2013-06-05 09:16:00,
2013-06-05 05:21:00,71.5,68.7,30.05,East,88,6.0,20.0,91,0.00,,---,0.00,VWS V14.01,2013-06-05 09:21:00,
2013-06-05 05:27:00,71.5,68.4,30.05,ESE,106,18.0,23.0,90,0.00,,---,0.00,VWS V14.01,2013-06-05 09:27:00,
2013-06-05 05:32:00,71.6,68.5,30.05,East,97,15.0,22.0,90,0.00,,---,0.00,VWS V14.01,2013-06-05 09:32:00,
2013-06-05 05:37:00,71.5,68.4,30.05,East,101,11.0,22.0,90,0.00,,---,0.00,VWS V14.01,2013-06-05 09:37:00,
2013-06-05 05:42:00,71.5,68.4,30.05,East,97,17.0,22.0,90,0.00,,---,0.00,VWS V14.01,2013-06-05 09:42:00,
2013-06-05 05:47:00,71.5,68.4,30.06,ENE,73,12.0,22.0,90,0.00,,---,0.00,VWS V14.01,2013-06-05 09:47:00,
2013-06-05 05:52:00,71.6,68.5,30.06,East,84,12.0,22.0,90,0.00,,---,0.00,VWS V14.01,2013-06-05 09:52:00,
2013-06-05 05:57:00,71.7,68.6,30.06,East,88,11.0,22.0,90,0.00,,---,0.00,VWS V14.01,2013-06-05 09:57:00,
2013-06-05 06:02:00,71.8,68.7,30.07,East,88,9.0,14.0,90,0.00,,---,0.00,VWS V14.01,2013-06-05 10:02:00,
2013-06-05 06:07:00,71.8,68.4,30.06,East,92,11.0,17.0,89,0.00,,---,0.00,VWS V14.01,2013-06-05 10:07:00,
2013-06-05 06:12:00,71.8,68.4,30.06,ESE,115,12.0,18.0,89,0.00,,---,0.00,VWS V14.01,2013-06-05 10:12:00,
2013-06-05 06:17:00,71.8,68.4,30.06,East,97,11.0,18.0,89,0.00,,---,0.00,VWS V14.01,2013-06-05 10:17:00,
2013-06-05 06:22:00,71.9,68.5,30.06,East,90,16.0,18.0,89,0.00,,---,0.00,VWS V14.01,2013-06-05 10:22:00,
2013-06-05 06:27:00,71.9,68.5,30.07,East,81,10.0,10.0,89,0.00,,---,0.00,VWS V14.01,2013-06-05 10:27:00,
2013-06-05 06:32:00,71.9,68.5,30.06,East,90,13.0,18.0,89,0.00,,---,0.00,VWS V14.01,2013-06-05 10:32:00,
2013-06-05 06:38:00,71.9,68.5,30.06,ENE,78,5.0,18.0,89,0.00,,---,0.00,VWS V14.01,2013-06-05 10:38:00,
2013-06-05 06:43:00,72.0,68.3,30.07,ESE,107,10.0,18.0,88,0.00,,---,0.00,VWS V14.01,2013-06-05 10:43:00,
2013-06-05 06:48:00,71.9,68.2,30.07,East,97,12.0,18.0,88,0.00,,---,0.00,VWS V14.01,2013-06-05 10:48:00,
2013-06-05 06:53:00,72.0,68.3,30.07,East,88,10.0,18.0,88,0.00,,---,0.00,VWS V14.01,2013-06-05 10:53:00,
2013-06-05 06:58:00,72.1,68.3,30.07,ESE,105,12.0,18.0,88,0.00,,---,0.00,VWS V14.01,2013-06-05 10:58:00,
2013-06-05 07:03:00,72.3,68.6,30.07,East,97,18.0,19.0,88,0.00,,---,0.00,VWS V14.01,2013-06-05 11:03:00,
2013-06-05 07:08:00,72.4,68.3,30.07,East,82,9.0,19.0,87,0.00,,---,0.00,VWS V14.01,2013-06-05 11:08:00,
2013-06-05 07:13:00,72.7,68.6,30.07,ESE,109,18.0,21.0,87,0.00,,---,0.00,VWS V14.01,2013-06-05 11:13:00,
2013-06-05 07:18:00,72.9,68.8,30.07,East,85,15.0,21.0,87,0.00,,---,0.00,VWS V14.01,2013-06-05 11:18:00,
2013-06-05 07:23:00,73.0,68.6,30.07,East,86,13.0,21.0,86,0.00,,---,0.00,VWS V14.01,2013-06-05 11:23:00,
2013-06-05 07:28:00,73.2,68.8,30.07,East,86,11.0,14.0,86,0.00,,---,0.00,VWS V14.01,2013-06-05 11:28:00,
2013-06-05 07:33:00,73.1,68.7,30.07,East,85,7.0,15.0,86,0.00,,---,0.00,VWS V14.01,2013-06-05 11:33:00,
2013-06-05 07:38:00,73.1,68.7,30.07,East,86,11.0,15.0,86,0.00,,---,0.00,VWS V14.01,2013-06-05 11:38:00,
2013-06-05 07:43:00,73.2,68.8,30.07,ENE,66,13.0,16.0,86,0.00,,---,0.00,VWS V14.01,2013-06-05 11:43:00,
2013-06-05 07:48:00,73.3,68.5,30.07,ESE,107,20.0,22.0,85,0.00,,---,0.00,VWS V14.01,2013-06-05 11:48:00,
2013-06-05 07:54:00,73.5,68.0,30.07,ESE,107,15.0,22.0,83,0.00,,---,0.00,VWS V14.01,2013-06-05 11:54:00,
2013-06-05 07:59:00,73.7,68.2,30.07,East,98,13.0,20.0,83,0.00,,---,0.00,VWS V14.01,2013-06-05 11:59:00,
2013-06-05 08:04:00,73.6,67.8,30.07,East,94,14.0,20.0,82,0.00,,---,0.00,VWS V14.01,2013-06-05 12:04:00,
2013-06-05 08:09:00,73.8,68.0,30.07,ESE,102,15.0,22.0,82,0.00,,---,0.00,VWS V14.01,2013-06-05 12:09:00,
2013-06-05 08:14:00,74.0,68.2,30.07,East,100,10.0,22.0,82,0.00,,---,0.00,VWS V14.01,2013-06-05 12:14:00,
2013-06-05 08:19:00,73.8,68.0,30.07,ESE,103,12.0,22.0,82,0.00,,---,0.00,VWS V14.01,2013-06-05 12:19:00,
2013-06-05 08:24:00,73.6,67.8,30.08,East,95,10.0,22.0,82,0.00,,---,0.00,VWS V14.01,2013-06-05 12:24:00,
2013-06-05 08:29:00,73.7,67.9,30.08,ENE,76,13.0,20.0,82,0.00,,---,0.00,VWS V14.01,2013-06-05 12:29:00,
2013-06-05 08:34:00,73.9,68.1,30.08,ESE,112,12.0,20.0,82,0.00,,---,0.00,VWS V14.01,2013-06-05 12:34:00,
2013-06-05 08:39:00,74.0,67.8,30.08,East,101,12.0,20.0,81,0.00,,---,0.00,VWS V14.01,2013-06-05 12:39:00,
2013-06-05 08:44:00,74.4,67.8,30.08,ESE,107,12.0,20.0,80,0.00,,---,0.00,VWS V14.01,2013-06-05 12:44:00,
2013-06-05 08:49:00,74.7,68.1,30.09,East,93,11.0,20.0,80,0.00,,---,0.00,VWS V14.01,2013-06-05 12:49:00,
2013-06-05 08:54:00,74.6,68.0,30.08,East,94,9.0,20.0,80,0.00,,---,0.00,VWS V14.01,2013-06-05 12:54:00,
2013-06-05 08:59:00,74.3,67.7,30.08,East,89,10.0,16.0,80,0.00,,---,0.00,VWS V14.01,2013-06-05 12:59:00,
2013-06-05 09:04:00,74.3,68.1,30.09,East,82,12.0,18.0,81,0.00,,---,0.00,VWS V14.01,2013-06-05 13:04:00,
2013-06-05 09:10:00,74.3,67.7,30.09,East,101,12.0,19.0,80,0.00,,---,0.00,VWS V14.01,2013-06-05 13:10:00,
2013-06-05 09:15:00,74.4,68.2,30.09,ENE,78,11.0,19.0,81,0.00,,---,0.00,VWS V14.01,2013-06-05 13:15:00,
2013-06-05 09:20:00,74.4,67.8,30.08,East,80,13.0,20.0,80,0.00,,---,0.00,VWS V14.01,2013-06-05 13:20:00,
2013-06-05 09:25:00,74.8,68.6,30.08,East,83,12.0,20.0,81,0.00,,---,0.00,VWS V14.01,2013-06-05 13:25:00,
2013-06-05 09:30:00,74.8,68.2,30.08,ENE,76,8.0,19.0,80,0.00,,---,0.00,VWS V14.01,2013-06-05 13:30:00,
2013-06-05 09:35:00,74.7,68.1,30.08,East,87,20.0,20.0,80,0.00,,---,0.00,VWS V14.01,2013-06-05 13:35:00,
2013-06-05 09:40:00,74.6,67.7,30.08,East,94,15.0,20.0,79,0.00,,---,0.00,VWS V14.01,2013-06-05 13:40:00,
2013-06-05 09:45:00,74.2,67.3,30.08,ENE,78,17.0,20.0,79,0.00,,---,0.00,VWS V14.01,2013-06-05 13:45:00,
2013-06-05 09:50:00,74.0,67.4,30.09,ESE,108,18.0,20.0,80,0.00,,---,0.00,VWS V14.01,2013-06-05 13:50:00,
2013-06-05 09:55:00,73.9,67.3,30.09,East,86,13.0,20.0,80,0.00,,---,0.00,VWS V14.01,2013-06-05 13:55:00,
2013-06-05 10:01:00,74.1,67.5,30.09,East,96,10.0,17.0,80,0.00,,---,0.00,VWS V14.01,2013-06-05 14:01:00,
2013-06-05 10:06:00,74.3,67.0,30.10,ESE,110,13.0,18.0,78,0.00,,---,0.00,VWS V14.01,2013-06-05 14:06:00,
2013-06-05 10:11:00,74.4,67.1,30.10,ESE,110,12.0,18.0,78,0.00,,---,0.00,VWS V14.01,2013-06-05 14:11:00,
2013-06-05 10:16:00,74.3,66.6,30.10,ENE,75,10.0,18.0,77,0.00,,---,0.00,VWS V14.01,2013-06-05 14:16:00,
2013-06-05 10:21:00,74.2,66.5,30.10,ENE,71,9.0,18.0,77,0.00,,---,0.00,VWS V14.01,2013-06-05 14:21:00,
2013-06-05 10:26:00,74.0,66.3,30.09,ENE,78,16.0,18.0,77,0.00,,---,0.00,VWS V14.01,2013-06-05 14:26:00,
2013-06-05 10:31:00,74.2,66.5,30.09,East,97,13.0,19.0,77,0.00,,---,0.00,VWS V14.01,2013-06-05 14:31:00,
2013-06-05 10:36:00,74.4,66.7,30.09,East,90,11.0,19.0,77,0.00,,---,0.00,VWS V14.01,2013-06-05 14:36:00,
2013-06-05 10:42:00,74.7,67.0,30.09,ESE,108,7.0,20.0,77,0.00,,---,0.00,VWS V14.01,2013-06-05 14:42:00,
2013-06-05 10:47:00,75.1,67.4,30.09,ESE,112,17.0,20.0,77,0.00,,---,0.00,VWS V14.01,2013-06-05 14:47:00,
2013-06-05 10:52:00,75.5,67.4,30.09,East,90,10.0,22.0,76,0.00,,---,0.00,VWS V14.01,2013-06-05 14:52:00,
2013-06-05 10:57:00,75.6,67.5,30.09,East,98,14.0,22.0,76,0.00,,---,0.00,VWS V14.01,2013-06-05 14:57:00,
2013-06-05 11:02:00,75.6,67.1,30.09,SE,129,9.0,19.0,75,0.00,,---,0.00,VWS V14.01,2013-06-05 15:02:00,
2013-06-05 11:07:00,75.6,67.1,30.09,ENE,71,10.0,23.0,75,0.00,,---,0.00,VWS V14.01,2013-06-05 15:07:00,
2013-06-05 11:12:00,75.6,67.5,30.09,East,90,11.0,23.0,76,0.00,,---,0.00,VWS V14.01,2013-06-05 15:12:00,
2013-06-05 11:17:00,75.6,67.1,30.09,East,80,7.0,23.0,75,0.00,,---,0.00,VWS V14.01,2013-06-05 15:17:00,
2013-06-05 11:22:00,75.7,67.6,30.10,East,90,10.0,23.0,76,0.00,,---,0.00,VWS V14.01,2013-06-05 15:22:00,
2013-06-05 11:27:00,75.7,66.8,30.10,East,93,14.0,23.0,74,0.00,,---,0.00,VWS V14.01,2013-06-05 15:27:00,
2013-06-05 11:32:00,75.9,67.4,30.10,ENE,74,11.0,17.0,75,0.00,,---,0.00,VWS V14.01,2013-06-05 15:32:00,
2013-06-05 11:37:00,75.7,66.8,30.10,East,86,15.0,17.0,74,0.00,,---,0.00,VWS V14.01,2013-06-05 15:37:00,
2013-06-05 11:43:00,75.8,66.9,30.10,East,95,13.0,18.0,74,0.00,,---,0.00,VWS V14.01,2013-06-05 15:43:00,
2013-06-05 11:48:00,76.2,66.9,30.10,ESE,118,13.0,19.0,73,0.00,,---,0.00,VWS V14.01,2013-06-05 15:48:00,
2013-06-05 11:53:00,76.6,66.9,30.10,ESE,110,15.0,20.0,72,0.00,,---,0.00,VWS V14.01,2013-06-05 15:53:00,
2013-06-05 11:58:00,77.0,66.9,30.10,ESE,111,11.0,13.0,71,0.00,,---,0.00,VWS V14.01,2013-06-05 15:58:00,
2013-06-05 12:03:00,76.8,67.5,30.10,ESE,115,15.0,18.0,73,0.00,,---,0.00,VWS V14.01,2013-06-05 16:03:00,
2013-06-05 12:08:00,76.8,67.1,30.10,East,95,14.0,20.0,72,0.00,,---,0.00,VWS V14.01,2013-06-05 16:08:00,
2013-06-05 12:13:00,76.9,67.6,30.10,ESE,113,18.0,20.0,73,0.00,,---,0.00,VWS V14.01,2013-06-05 16:13:00,
2013-06-05 12:18:00,77.2,67.1,30.10,ESE,105,13.0,20.0,71,0.00,,---,0.00,VWS V14.01,2013-06-05 16:18:00,
2013-06-05 12:23:00,77.1,67.0,30.10,ESE,103,12.0,20.0,71,0.00,,---,0.00,VWS V14.01,2013-06-05 16:23:00,
2013-06-05 12:28:00,77.1,67.0,30.09,East,90,14.0,18.0,71,0.00,,---,0.00,VWS V14.01,2013-06-05 16:28:00,
2013-06-05 12:34:00,77.3,67.6,30.09,East,101,18.0,21.0,72,0.00,,---,0.00,VWS V14.01,2013-06-05 16:34:00,
2013-06-05 12:39:00,77.3,66.8,30.09,East,85,11.0,22.0,70,0.00,,---,0.00,VWS V14.01,2013-06-05 16:39:00,
2013-06-05 12:44:00,77.4,67.3,30.09,ESE,110,13.0,22.0,71,0.00,,---,0.00,VWS V14.01,2013-06-05 16:44:00,
2013-06-05 12:49:00,77.6,67.5,30.09,East,100,15.0,22.0,71,0.00,,---,0.00,VWS V14.01,2013-06-05 16:49:00,
2013-06-05 12:54:00,77.4,66.9,30.09,ESE,107,15.0,22.0,70,0.00,,---,0.00,VWS V14.01,2013-06-05 16:54:00,
2013-06-05 12:59:00,77.5,67.4,30.09,East,91,10.0,13.0,71,0.00,,---,0.00,VWS V14.01,2013-06-05 16:59:00,
2013-06-05 13:04:00,77.3,67.2,30.08,East,86,10.0,19.0,71,0.00,,---,0.00,VWS V14.01,2013-06-05 17:04:00,
2013-06-05 13:09:00,77.3,66.8,30.08,ESE,107,12.0,19.0,70,0.00,,---,0.00,VWS V14.01,2013-06-05 17:09:00,
2013-06-05 13:14:00,77.5,67.8,30.08,East,85,14.0,19.0,72,0.00,,---,0.00,VWS V14.01,2013-06-05 17:14:00,
2013-06-05 13:19:00,77.9,68.2,30.08,ESE,112,14.0,19.0,72,0.00,,---,0.00,VWS V14.01,2013-06-05 17:19:00,
2013-06-05 13:24:00,77.8,68.5,30.08,ESE,107,19.0,20.0,73,0.00,,---,0.00,VWS V14.01,2013-06-05 17:24:00,
2013-06-05 13:29:00,78.1,68.3,30.08,ESE,109,15.0,18.0,72,0.00,,---,0.00,VWS V14.01,2013-06-05 17:29:00,
2013-06-05 13:34:00,78.4,68.2,30.08,ENE,78,12.0,20.0,71,0.00,,---,0.00,VWS V14.01,2013-06-05 17:34:00,
2013-06-05 13:39:00,78.4,68.2,30.08,East,86,14.0,20.0,71,0.00,,---,0.00,VWS V14.01,2013-06-05 17:39:00,
2013-06-05 13:44:00,78.4,68.6,30.08,ESE,106,12.0,20.0,72,0.00,,---,0.00,VWS V14.01,2013-06-05 17:44:00,
2013-06-05 13:49:00,78.3,67.7,30.08,ESE,106,16.0,20.0,70,0.00,,---,0.00,VWS V14.01,2013-06-05 17:49:00,
2013-06-05 13:54:00,78.2,67.2,30.08,ESE,117,14.0,21.0,69,0.00,,---,0.00,VWS V14.01,2013-06-05 17:54:00,
2013-06-05 13:59:00,78.2,67.2,30.08,ESE,104,13.0,19.0,69,0.00,,---,0.00,VWS V14.01,2013-06-05 17:59:00,
2013-06-05 14:04:00,78.3,67.3,30.08,ESE,106,16.0,19.0,69,0.00,,---,0.00,VWS V14.01,2013-06-05 18:04:00,
2013-06-05 14:10:00,78.4,67.4,30.08,ESE,112,14.0,20.0,69,0.00,,---,0.00,VWS V14.01,2013-06-05 18:10:00,
2013-06-05 14:15:00,78.3,67.3,30.08,ESE,107,20.0,22.0,69,0.00,,---,0.00,VWS V14.01,2013-06-05 18:15:00,
2013-06-05 14:20:00,78.2,67.2,30.07,East,86,16.0,22.0,69,0.00,,---,0.00,VWS V14.01,2013-06-05 18:20:00,
2013-06-05 14:25:00,78.2,67.2,30.07,East,93,18.0,22.0,69,0.00,,---,0.00,VWS V14.01,2013-06-05 18:25:00,
2013-06-05 14:30:00,78.3,66.9,30.07,ESE,109,13.0,21.0,68,0.00,,---,0.00,VWS V14.01,2013-06-05 18:30:00,
2013-06-05 14:35:00,78.5,67.1,30.06,ESE,111,17.0,21.0,68,0.00,,---,0.00,VWS V14.01,2013-06-05 18:35:00,
2013-06-05 14:40:00,78.6,67.2,30.06,East,94,15.0,21.0,68,0.00,,---,0.00,VWS V14.01,2013-06-05 18:40:00,
2013-06-05 14:45:00,78.8,66.9,30.06,ESE,112,16.0,21.0,67,0.00,,---,0.00,VWS V14.01,2013-06-05 18:45:00,
2013-06-05 14:50:00,78.7,66.8,30.06,ESE,114,12.0,21.0,67,0.00,,---,0.00,VWS V14.01,2013-06-05 18:50:00,
2013-06-05 14:55:00,78.7,67.3,30.06,ESE,112,15.0,21.0,68,0.00,,---,0.00,VWS V14.01,2013-06-05 18:55:00,
2013-06-05 15:00:00,78.5,67.9,30.07,ESE,123,17.0,19.0,70,0.00,,---,0.00,VWS V14.01,2013-06-05 19:00:00,
2013-06-05 15:05:00,78.0,68.7,30.06,ESE,106,18.0,20.0,73,0.00,,---,0.00,VWS V14.01,2013-06-05 19:05:00,
2013-06-05 15:10:00,78.2,69.6,30.06,ESE,119,13.0,21.0,75,0.00,,---,0.00,VWS V14.01,2013-06-05 19:10:00,
2013-06-05 15:15:00,78.2,69.6,30.05,ESE,117,13.0,21.0,75,0.00,,---,0.00,VWS V14.01,2013-06-05 19:15:00,
2013-06-05 15:20:00,78.2,70.0,30.05,ESE,116,20.0,21.0,76,0.00,,---,0.00,VWS V14.01,2013-06-05 19:20:00,
2013-06-05 15:25:00,78.1,69.9,30.05,ESE,115,15.0,22.0,76,0.00,,---,0.00,VWS V14.01,2013-06-05 19:25:00,
2013-06-05 15:30:00,78.1,69.9,30.05,East,101,15.0,18.0,76,0.00,,---,0.00,VWS V14.01,2013-06-05 19:30:00,
2013-06-05 15:35:00,78.0,70.2,30.05,SE,128,15.0,20.0,77,0.00,,---,0.00,VWS V14.01,2013-06-05 19:35:00,
2013-06-05 15:40:00,78.0,70.2,30.05,ESE,117,10.0,20.0,77,0.00,,---,0.00,VWS V14.01,2013-06-05 19:40:00,
2013-06-05 15:45:00,77.9,70.1,30.04,ESE,119,18.0,20.0,77,0.00,,---,0.00,VWS V14.01,2013-06-05 19:45:00,
2013-06-05 15:50:00,77.7,69.9,30.05,ESE,105,17.0,20.0,77,0.00,,---,0.00,VWS V14.01,2013-06-05 19:50:00,
2013-06-05 15:56:00,77.3,69.5,30.05,ESE,111,19.0,20.0,77,0.00,,---,0.00,VWS V14.01,2013-06-05 19:56:00,
2013-06-05 16:01:00,77.4,70.0,30.05,SE,132,15.0,21.0,78,0.00,,---,0.00,VWS V14.01,2013-06-05 20:01:00,
2013-06-05 16:06:00,77.5,70.1,30.04,ESE,111,14.0,21.0,78,0.00,,---,0.00,VWS V14.01,2013-06-05 20:06:00,
2013-06-05 16:11:00,77.2,69.8,30.04,SE,133,14.0,21.0,78,0.00,,---,0.00,VWS V14.01,2013-06-05 20:11:00,
2013-06-05 16:16:00,76.9,69.5,30.04,ESE,111,17.0,21.0,78,0.00,,---,0.00,VWS V14.01,2013-06-05 20:16:00,
2013-06-05 16:21:00,76.6,69.6,30.04,ESE,121,16.0,21.0,79,0.00,,---,0.00,VWS V14.01,2013-06-05 20:21:00,
2013-06-05 16:26:00,76.1,69.1,30.04,ESE,105,12.0,22.0,79,0.00,,---,0.00,VWS V14.01,2013-06-05 20:26:00,
2013-06-05 16:31:00,76.1,69.1,30.04,ESE,105,10.0,16.0,79,0.00,,---,0.00,VWS V14.01,2013-06-05 20:31:00,
2013-06-05 16:36:00,76.0,69.4,30.04,ESE,103,19.0,19.0,80,0.00,,---,0.00,VWS V14.01,2013-06-05 20:36:00,
2013-06-05 16:42:00,76.0,69.4,30.03,East,96,15.0,20.0,80,0.00,,---,0.00,VWS V14.01,2013-06-05 20:42:00,
2013-06-05 16:47:00,75.8,69.2,30.03,ESE,108,14.0,20.0,80,0.00,,---,0.00,VWS V14.01,2013-06-05 20:47:00,
2013-06-05 16:52:00,75.8,69.2,30.04,ESE,115,11.0,20.0,80,0.00,,---,0.00,VWS V14.01,2013-06-05 20:52:00,
2013-06-05 16:57:00,75.9,69.3,30.03,ESE,108,15.0,20.0,80,0.00,,---,0.00,VWS V14.01,2013-06-05 20:57:00,
2013-06-05 17:02:00,76.0,69.8,30.03,SE,140,15.0,17.0,81,0.00,,---,0.00,VWS V14.01,2013-06-05 21:02:00,
2013-06-05 17:07:00,76.1,69.5,30.03,ESE,123,18.0,18.0,80,0.00,,---,0.00,VWS V14.01,2013-06-05 21:07:00,
2013-06-05 17:12:00,76.1,69.5,30.03,ESE,117,8.0,18.0,80,0.00,,---,0.00,VWS V14.01,2013-06-05 21:12:00,
2013-06-05 17:17:00,76.1,69.5,30.03,SE,127,14.0,18.0,80,0.00,,---,0.00,VWS V14.01,2013-06-05 21:17:00,
2013-06-05 17:22:00,76.1,69.5,30.03,SE,128,17.0,19.0,80,0.00,,---,0.00,VWS V14.01,2013-06-05 21:22:00,
2013-06-05 17:27:00,76.1,69.5,30.03,ESE,115,12.0,16.0,80,0.00,,---,0.00,VWS V14.01,2013-06-05 21:27:00,
2013-06-05 17:32:00,76.2,69.6,30.03,ESE,105,9.0,16.0,80,0.00,,---,0.00,VWS V14.01,2013-06-05 21:32:00,
2013-06-05 17:38:00,76.3,69.7,30.03,ESE,119,16.0,16.0,80,0.00,,---,0.00,VWS V14.01,2013-06-05 21:38:00,
2013-06-05 17:43:00,76.1,69.5,30.03,ESE,107,12.0,16.0,80,0.00,,---,0.00,VWS V14.01,2013-06-05 21:43:00,
2013-06-05 17:48:00,75.7,69.1,30.03,ESE,112,13.0,16.0,80,0.00,,---,0.00,VWS V14.01,2013-06-05 21:48:00,
2013-06-05 17:53:00,75.6,69.4,30.03,ESE,118,11.0,17.0,81,0.00,,---,0.00,VWS V14.01,2013-06-05 21:53:00,
2013-06-05 17:58:00,75.7,69.5,30.03,ESE,107,18.0,18.0,81,0.00,,---,0.00,VWS V14.01,2013-06-05 21:58:00,
2013-06-05 18:03:00,75.7,69.5,30.03,ESE,116,13.0,18.0,81,0.00,,---,0.00,VWS V14.01,2013-06-05 22:03:00,
2013-06-05 18:08:00,75.7,69.5,30.03,ESE,106,17.0,19.0,81,0.00,,---,0.00,VWS V14.01,2013-06-05 22:08:00,
2013-06-05 18:13:00,75.6,69.4,30.02,SE,127,12.0,20.0,81,0.00,,---,0.00,VWS V14.01,2013-06-05 22:13:00,
2013-06-05 18:18:00,75.6,69.4,30.02,ESE,117,12.0,20.0,81,0.00,,---,0.00,VWS V14.01,2013-06-05 22:18:00,
2013-06-05 18:23:00,75.5,69.6,30.03,ESE,109,15.0,20.0,82,0.00,,---,0.00,VWS V14.01,2013-06-05 22:23:00,
2013-06-05 18:28:00,75.5,69.6,30.02,ESE,109,18.0,18.0,82,0.00,,---,0.00,VWS V14.01,2013-06-05 22:28:00,
2013-06-05 18:33:00,75.3,69.4,30.02,SE,136,12.0,18.0,82,0.00,,---,0.00,VWS V14.01,2013-06-05 22:33:00,
2013-06-05 18:38:00,75.2,69.7,30.02,ESE,104,10.0,18.0,83,0.00,,---,0.00,VWS V14.01,2013-06-05 22:38:00,
2013-06-05 18:43:00,75.3,69.8,30.02,ESE,113,13.0,19.0,83,0.00,,---,0.00,VWS V14.01,2013-06-05 22:43:00,
2013-06-05 18:48:00,75.2,69.7,30.02,SE,126,11.0,19.0,83,0.00,,---,0.00,VWS V14.01,2013-06-05 22:48:00,
2013-06-05 18:53:00,75.0,69.5,30.02,SE,130,9.0,19.0,83,0.00,,---,0.00,VWS V14.01,2013-06-05 22:53:00,
2013-06-05 18:58:00,75.1,69.6,30.02,ESE,116,7.0,16.0,83,0.00,,---,0.00,VWS V14.01,2013-06-05 22:58:00,
2013-06-05 19:03:00,75.1,69.6,30.02,ESE,114,12.0,19.0,83,0.00,,---,0.00,VWS V14.01,2013-06-05 23:03:00,
2013-06-05 19:08:00,75.0,69.5,30.03,ESE,112,17.0,19.0,83,0.00,,---,0.00,VWS V14.01,2013-06-05 23:08:00,
2013-06-05 19:13:00,75.1,69.9,30.02,ESE,105,11.0,19.0,84,0.00,,---,0.00,VWS V14.01,2013-06-05 23:13:00,
2013-06-05 19:19:00,75.0,69.8,30.02,ESE,115,17.0,19.0,84,0.00,,---,0.00,VWS V14.01,2013-06-05 23:19:00,
2013-06-05 19:24:00,74.8,69.7,30.02,ESE,103,12.0,19.0,84,0.00,,---,0.00,VWS V14.01,2013-06-05 23:24:00,
2013-06-05 19:29:00,74.8,69.7,30.02,East,92,12.0,17.0,84,0.00,,---,0.00,VWS V14.01,2013-06-05 23:29:00,
2013-06-05 19:34:00,74.8,69.7,30.02,ESE,114,16.0,19.0,84,0.00,,---,0.00,VWS V14.01,2013-06-05 23:34:00,
2013-06-05 19:39:00,74.7,69.6,30.02,ESE,116,18.0,20.0,84,0.00,,---,0.00,VWS V14.01,2013-06-05 23:39:00,
2013-06-05 19:44:00,74.7,69.6,30.02,ESE,113,15.0,20.0,84,0.00,,---,0.00,VWS V14.01,2013-06-05 23:44:00,
2013-06-05 19:49:00,74.6,69.4,30.02,ESE,110,14.0,20.0,84,0.00,,---,0.00,VWS V14.01,2013-06-05 23:49:00,
2013-06-05 19:54:00,74.6,69.4,30.02,ESE,119,11.0,20.0,84,0.00,,---,0.00,VWS V14.01,2013-06-05 23:54:00,
2013-06-05 19:59:00,74.6,69.8,30.01,ESE,120,18.0,20.0,85,0.00,,---,0.00,VWS V14.01,2013-06-05 23:59:00,
2013-06-05 20:04:00,74.5,69.7,30.02,ESE,115,13.0,23.0,85,0.00,,---,0.00,VWS V14.01,2013-06-06 00:04:00,
2013-06-05 20:09:00,74.5,69.7,30.02,East,101,19.0,23.0,85,0.00,,---,0.00,VWS V14.01,2013-06-06 00:09:00,
2013-06-05 20:14:00,74.4,69.6,30.01,ESE,120,14.0,23.0,85,0.00,,---,0.00,VWS V14.01,2013-06-06 00:14:00,
2013-06-05 20:19:00,74.4,69.6,30.02,East,101,13.0,23.0,85,0.00,,---,0.00,VWS V14.01,2013-06-06 00:19:00,
2013-06-05 20:24:00,74.4,69.6,30.02,ESE,120,15.0,23.0,85,0.00,,---,0.00,VWS V14.01,2013-06-06 00:24:00,
2013-06-05 20:30:00,74.4,69.6,30.02,ESE,102,13.0,16.0,85,0.00,,---,0.00,VWS V14.01,2013-06-06 00:30:00,
2013-06-05 20:35:00,74.4,69.6,30.03,ESE,102,13.0,21.0,85,0.00,,---,0.00,VWS V14.01,2013-06-06 00:35:00,
2013-06-05 20:40:00,74.4,69.6,30.03,ESE,111,15.0,21.0,85,0.00,,---,0.00,VWS V14.01,2013-06-06 00:40:00,
2013-06-05 20:45:00,74.4,69.9,30.03,East,101,9.0,21.0,86,0.00,,---,0.00,VWS V14.01,2013-06-06 00:45:00,
2013-06-05 20:50:00,74.4,69.9,30.03,ESE,113,11.0,21.0,86,0.00,,---,0.00,VWS V14.01,2013-06-06 00:50:00,
2013-06-05 20:55:00,74.4,69.9,30.03,SE,135,16.0,21.0,86,0.00,,---,0.00,VWS V14.01,2013-06-06 00:55:00,
2013-06-05 21:00:00,74.4,69.9,30.03,ESE,103,12.0,19.0,86,0.00,,---,0.00,VWS V14.01,2013-06-06 01:00:00,
2013-06-05 21:05:00,74.4,69.9,30.03,East,93,12.0,21.0,86,0.00,,---,0.00,VWS V14.01,2013-06-06 01:05:00,
2013-06-05 21:10:00,74.3,69.5,30.03,ESE,107,15.0,21.0,85,0.00,,---,0.00,VWS V14.01,2013-06-06 01:10:00,
2013-06-05 21:15:00,74.4,69.9,30.03,ESE,121,8.0,21.0,86,0.00,,---,0.00,VWS V14.01,2013-06-06 01:15:00,
2013-06-05 21:20:00,74.4,69.9,30.03,ESE,115,13.0,21.0,86,0.00,,---,0.00,VWS V14.01,2013-06-06 01:20:00,
2013-06-05 21:25:00,74.4,69.9,30.04,ESE,107,15.0,23.0,86,0.00,,---,0.00,VWS V14.01,2013-06-06 01:25:00,
2013-06-05 21:30:00,74.3,69.8,30.04,East,80,12.0,23.0,86,0.00,,---,0.00,VWS V14.01,2013-06-06 01:30:00,
2013-06-05 21:35:00,74.2,69.8,30.04,ESE,119,11.0,23.0,86,0.00,,---,0.00,VWS V14.01,2013-06-06 01:35:00,
2013-06-05 21:40:00,74.3,69.8,30.04,ESE,121,12.0,23.0,86,0.00,,---,0.00,VWS V14.01,2013-06-06 01:40:00,
2013-06-05 21:45:00,74.3,69.8,30.04,ESE,107,12.0,23.0,86,0.00,,---,0.00,VWS V14.01,2013-06-06 01:45:00,
2013-06-05 21:51:00,74.3,69.8,30.04,ESE,107,15.0,23.0,86,0.00,,---,0.00,VWS V14.01,2013-06-06 01:51:00,
2013-06-05 21:56:00,74.3,69.8,30.04,ESE,119,14.0,23.0,86,0.00,,---,0.00,VWS V14.01,2013-06-06 01:56:00,
2013-06-05 22:01:00,74.2,69.8,30.04,ESE,106,15.0,21.0,86,0.00,,---,0.00,VWS V14.01,2013-06-06 02:01:00,
2013-06-05 22:06:00,74.3,69.8,30.04,East,101,18.0,25.0,86,0.00,,---,0.00,VWS V14.01,2013-06-06 02:06:00,
2013-06-05 22:11:00,74.3,69.8,30.04,ESE,103,9.0,25.0,86,0.00,,---,0.00,VWS V14.01,2013-06-06 02:11:00,
2013-06-05 22:16:00,74.3,69.8,30.04,ESE,117,15.0,25.0,86,0.00,,---,0.00,VWS V14.01,2013-06-06 02:16:00,
2013-06-05 22:21:00,74.2,69.8,30.04,ESE,105,23.0,25.0,86,0.00,,---,0.00,VWS V14.01,2013-06-06 02:21:00,
2013-06-05 22:26:00,74.2,69.8,30.04,ESE,108,12.0,25.0,86,0.00,,---,0.00,VWS V14.01,2013-06-06 02:26:00,
2013-06-05 22:31:00,74.2,69.8,30.05,East,101,13.0,25.0,86,0.00,,---,0.00,VWS V14.01,2013-06-06 02:31:00,
2013-06-05 22:36:00,74.2,69.8,30.04,ESE,111,20.0,25.0,86,0.00,,---,0.00,VWS V14.01,2013-06-06 02:36:00,
2013-06-05 22:42:00,74.1,69.7,30.04,ESE,116,20.0,25.0,86,0.00,,---,0.00,VWS V14.01,2013-06-06 02:42:00,
2013-06-05 22:47:00,74.2,69.8,30.04,ESE,112,18.0,25.0,86,0.00,,---,0.00,VWS V14.01,2013-06-06 02:47:00,
2013-06-05 22:52:00,74.1,69.7,30.04,East,101,19.0,25.0,86,0.00,,---,0.00,VWS V14.01,2013-06-06 02:52:00,
2013-06-05 22:57:00,74.2,70.1,30.05,ESE,107,15.0,25.0,87,0.00,,---,0.00,VWS V14.01,2013-06-06 02:57:00,
2013-06-05 23:02:00,74.1,69.7,30.04,ESE,102,15.0,26.0,86,0.00,,---,0.00,VWS V14.01,2013-06-06 03:02:00,
2013-06-05 23:07:00,74.2,70.1,30.04,ESE,113,24.0,26.0,87,0.00,,---,0.00,VWS V14.01,2013-06-06 03:07:00,
2013-06-05 23:12:00,74.2,70.1,30.04,ESE,104,21.0,26.0,87,0.00,,---,0.00,VWS V14.01,2013-06-06 03:12:00,
2013-06-05 23:17:00,74.1,70.0,30.04,ESE,111,12.0,26.0,87,0.00,,---,0.00,VWS V14.01,2013-06-06 03:17:00,
2013-06-05 23:22:00,74.1,70.0,30.04,ESE,111,12.0,26.0,87,0.00,,---,0.00,VWS V14.01,2013-06-06 03:22:00,
2013-06-05 23:27:00,74.2,70.1,30.04,ESE,107,15.0,26.0,87,0.00,,---,0.00,VWS V14.01,2013-06-06 03:27:00,
2013-06-05 23:32:00,74.3,70.2,30.04,East,91,18.0,23.0,87,0.00,,---,0.00,VWS V14.01,2013-06-06 03:32:00,
2013-06-05 23:37:00,74.2,70.1,30.04,ESE,104,15.0,23.0,87,0.00,,---,0.00,VWS V14.01,2013-06-06 03:37:00,
2013-06-05 23:42:00,74.2,70.1,30.04,ESE,111,19.0,23.0,87,0.00,,---,0.00,VWS V14.01,2013-06-06 03:42:00,
2013-06-05 23:47:00,74.2,70.4,30.04,ESE,103,16.0,23.0,88,0.00,,---,0.00,VWS V14.01,2013-06-06 03:47:00,
2013-06-05 23:52:00,74.3,70.5,30.04,ESE,112,13.0,23.0,88,0.00,,---,0.00,VWS V14.01,2013-06-06 03:52:00,
2013-06-05 23:57:00,74.3,70.5,30.04,ESE,106,12.0,23.0,88,0.00,,---,0.00,VWS V14.01,2013-06-06 03:57:00,